Time;durP1;ratioP1;P1;durP2;ratioP2;P2;SDS_P1;SDS_P2;PMS_P1;PMS_P2;Temp;Humidity;BMP_temperature;BMP_pressure;BME280_temperature;BME280_humidity;BME280_pressure;Samples;Min_cycle;Max_cycle;Signal;HPM_P1;HPM_P2
2021/11/10 00:01:35;;;;;;;24.63;22.13;;;2.40;99.90;;;;;;5087177;28;21270;-68
2021/11/10 00:04:02;;;;;;;25.80;23.60;;;2.30;99.90;;;;;;5091428;28;21259;-69
2021/11/10 00:06:29;;;;;;;27.13;24.73;;;2.30;99.90;;;;;;5094839;28;20991;-69
2021/11/10 00:08:55;;;;;;;28.13;25.10;;;2.20;99.90;;;;;;5090916;28;20461;-69
2021/11/10 00:11:22;;;;;;;25.33;23.10;;;2.10;99.90;;;;;;5092931;28;20461;-69
2021/11/10 00:13:49;;;;;;;29.83;25.43;;;2.10;99.90;;;;;;5089408;28;20467;-69
2021/11/10 00:16:16;;;;;;;25.43;23.00;;;2.00;99.90;;;;;;5096056;28;20457;-70
2021/11/10 00:18:45;;;;;;;28.23;24.73;;;2.00;99.90;;;;;;5095653;28;20469;-69
2021/11/10 00:21:12;;;;;;;25.77;23.33;;;2.00;99.90;;;;;;5086273;28;20465;-69
2021/11/10 00:23:39;;;;;;;30.60;23.87;;;2.00;99.90;;;;;;5089184;28;20480;-69
2021/11/10 00:26:06;;;;;;;25.30;23.23;;;2.00;99.90;;;;;;5093437;28;20469;-69
2021/11/10 00:28:32;;;;;;;25.40;23.00;;;2.00;99.90;;;;;;5088563;28;20454;-69
2021/11/10 00:31:00;;;;;;;32.70;24.07;;;2.00;99.90;;;;;;5090777;28;20497;-69
2021/11/10 00:33:26;;;;;;;27.57;24.70;;;2.00;99.90;;;;;;5089986;28;20465;-69
2021/11/10 00:35:54;;;;;;;27.10;24.27;;;2.00;99.90;;;;;;5092346;28;20846;-69
2021/11/10 00:38:22;;;;;;;28.10;24.90;;;2.00;99.90;;;;;;5087517;28;20463;-69
2021/11/10 00:40:48;;;;;;;29.30;25.57;;;2.00;99.90;;;;;;5091135;28;20473;-69
2021/11/10 00:43:16;;;;;;;30.33;24.63;;;2.10;99.90;;;;;;5092680;28;20469;-69
2021/11/10 00:45:42;;;;;;;28.50;24.80;;;2.10;99.90;;;;;;5093587;28;20888;-68
2021/11/10 00:48:10;;;;;;;26.50;24.17;;;2.10;99.90;;;;;;5088973;28;20822;-69
2021/11/10 00:50:38;;;;;;;27.53;24.77;;;2.10;99.90;;;;;;5089216;28;20504;-69
2021/11/10 00:53:07;;;;;;;27.80;25.03;;;2.10;99.90;;;;;;5094688;28;20466;-69
2021/11/10 00:55:36;;;;;;;26.47;24.07;;;2.20;99.90;;;;;;5083279;28;20465;-69
2021/11/10 00:58:03;;;;;;;25.27;23.03;;;2.30;99.90;;;;;;5089764;28;20491;-69
2021/11/10 01:00:30;;;;;;;30.13;23.93;;;2.40;99.90;;;;;;5094938;28;20465;-69
2021/11/10 01:02:57;;;;;;;35.13;23.47;;;2.30;99.90;;;;;;5091500;28;20490;-69
2021/11/10 01:05:24;;;;;;;34.33;24.53;;;2.30;99.90;;;;;;5089875;28;20470;-69
2021/11/10 01:07:51;;;;;;;26.43;23.53;;;2.30;99.90;;;;;;5095475;28;20465;-69
2021/11/10 01:10:19;;;;;;;27.60;23.60;;;2.30;99.90;;;;;;5089071;28;20503;-69
2021/11/10 01:12:47;;;;;;;31.53;24.60;;;2.40;99.90;;;;;;5101335;28;20465;-69
2021/11/10 01:15:16;;;;;;;26.37;23.83;;;2.30;99.90;;;;;;5099482;28;20543;-69
2021/11/10 01:17:43;;;;;;;30.97;25.00;;;2.40;99.90;;;;;;5097371;28;20486;-69
2021/11/10 01:20:12;;;;;;;29.33;26.50;;;2.40;99.90;;;;;;5098033;28;20463;-69
2021/11/10 01:22:40;;;;;;;28.37;25.53;;;2.40;99.90;;;;;;5093483;28;20457;-69
2021/11/10 01:25:09;;;;;;;27.00;24.43;;;2.30;99.90;;;;;;5103119;28;20472;-69
2021/11/10 01:27:38;;;;;;;32.87;25.30;;;2.30;99.90;;;;;;5102297;28;20460;-69
2021/11/10 01:30:07;;;;;;;38.00;24.33;;;2.20;99.90;;;;;;5101194;28;20873;-69
2021/11/10 01:32:35;;;;;;;27.63;24.77;;;2.20;99.90;;;;;;5101638;28;20828;-69
2021/11/10 01:35:02;;;;;;;30.90;25.03;;;2.10;99.90;;;;;;5100109;28;20473;-69
2021/11/10 01:37:28;;;;;;;26.63;24.43;;;2.00;99.90;;;;;;5100740;28;20917;-69
2021/11/10 01:39:56;;;;;;;28.37;25.40;;;2.00;99.90;;;;;;5099487;28;20465;-69
2021/11/10 01:42:27;;;;;;;29.60;26.40;;;1.90;99.90;;;;;;5091189;28;20464;-68
2021/11/10 01:44:55;;;;;;;28.47;25.43;;;2.00;99.90;;;;;;5098468;28;20956;-69
2021/11/10 01:47:22;;;;;;;27.10;24.93;;;2.00;99.90;;;;;;5095541;28;20456;-69
2021/11/10 01:49:49;;;;;;;28.40;25.57;;;1.90;99.90;;;;;;5095704;28;20479;-68
2021/11/10 01:52:18;;;;;;;28.27;25.57;;;1.80;99.90;;;;;;5094569;28;20794;-69
2021/11/10 01:54:45;;;;;;;36.67;25.80;;;1.70;99.90;;;;;;5087863;28;20982;-69
2021/11/10 01:57:13;;;;;;;31.93;26.77;;;1.70;99.90;;;;;;5090357;28;20465;-69
2021/11/10 01:59:41;;;;;;;28.47;25.50;;;1.70;99.90;;;;;;5092519;28;20468;-69
2021/11/10 02:02:18;;;;;;;28.73;25.90;;;1.60;99.90;;;;;;5093684;28;20472;-69
2021/11/10 02:04:47;;;;;;;29.30;26.67;;;1.60;99.90;;;;;;5094929;28;20492;-69
2021/11/10 02:07:14;;;;;;;28.23;25.23;;;1.50;99.90;;;;;;5095863;28;20472;-69
2021/11/10 02:09:43;;;;;;;30.20;25.50;;;1.50;99.90;;;;;;5093480;28;20470;-68
2021/11/10 02:12:10;;;;;;;28.60;25.67;;;1.40;99.90;;;;;;5090280;28;20472;-69
2021/11/10 02:14:38;;;;;;;34.87;26.97;;;1.40;99.90;;;;;;5091172;28;20955;-69
2021/11/10 02:17:06;;;;;;;27.93;24.23;;;1.50;99.90;;;;;;5095463;28;20548;-69
2021/11/10 02:19:34;;;;;;;28.67;25.80;;;1.50;99.90;;;;;;5089173;28;20468;-69
2021/11/10 02:22:02;;;;;;;28.50;25.87;;;1.50;99.90;;;;;;5089059;28;20463;-69
2021/11/10 02:24:32;;;;;;;30.67;26.67;;;1.60;99.90;;;;;;5088787;28;20488;-69
2021/11/10 02:26:59;;;;;;;37.73;25.57;;;1.60;99.90;;;;;;5091754;28;20465;-69
2021/11/10 02:29:27;;;;;;;29.70;26.93;;;1.60;99.90;;;;;;5094426;28;21219;-69
2021/11/10 02:31:55;;;;;;;30.60;26.00;;;1.60;99.90;;;;;;5095571;28;20855;-69
2021/11/10 02:34:22;;;;;;;29.80;26.70;;;1.60;99.90;;;;;;5096021;28;20462;-69
2021/11/10 02:36:50;;;;;;;40.60;27.47;;;1.60;99.90;;;;;;5093718;28;20509;-68
2021/11/10 02:39:20;;;;;;;29.00;26.03;;;1.60;99.90;;;;;;5093289;28;20465;-68
2021/11/10 02:41:48;;;;;;;29.20;26.50;;;1.60;99.90;;;;;;5093296;28;20487;-68
2021/11/10 02:44:17;;;;;;;42.87;27.50;;;1.60;99.90;;;;;;5091204;28;20570;-69
2021/11/10 02:46:44;;;;;;;30.50;27.20;;;1.60;99.90;;;;;;5097363;28;20515;-68
2021/11/10 02:49:12;;;;;;;31.37;26.40;;;1.80;99.90;;;;;;5086157;28;20456;-68
2021/11/10 02:51:56;;;;;;;29.30;26.53;;;1.90;99.90;;;;;;5099390;28;20818;-69
2021/11/10 02:54:26;;;;;;;35.20;26.30;;;2.10;99.90;;;;;;5090096;28;21438;-69
2021/11/10 02:56:54;;;;;;;37.87;26.43;;;2.10;99.90;;;;;;5093117;28;20472;-69
2021/11/10 02:59:21;;;;;;;29.17;26.37;;;2.10;99.90;;;;;;5092149;28;20511;-69
2021/11/10 03:01:49;;;;;;;29.63;26.63;;;2.10;99.90;;;;;;5089646;28;20508;-68
2021/11/10 03:04:20;;;;;;;33.60;26.30;;;2.10;99.90;;;;;;5093235;28;20493;-69
2021/11/10 03:06:48;;;;;;;29.77;26.87;;;2.10;99.90;;;;;;5085777;28;20468;-68
2021/11/10 03:09:19;;;;;;;29.90;25.77;;;2.10;99.90;;;;;;5097498;28;20486;-68
2021/11/10 03:11:47;;;;;;;29.77;26.97;;;2.30;99.90;;;;;;5090757;28;20468;-69
2021/11/10 03:14:16;;;;;;;35.43;26.40;;;2.40;99.90;;;;;;5089000;28;21009;-68
2021/11/10 03:16:43;;;;;;;37.93;25.67;;;2.50;99.90;;;;;;5093014;28;21308;-69
2021/11/10 03:19:10;;;;;;;31.03;26.97;;;2.50;99.90;;;;;;5100385;28;20468;-68
2021/11/10 03:21:37;;;;;;;30.00;26.77;;;2.50;99.90;;;;;;5088606;28;20492;-68
2021/11/10 03:24:04;;;;;;;28.87;26.13;;;2.40;99.90;;;;;;5088600;28;20476;-69
2021/11/10 03:26:31;;;;;;;29.57;26.60;;;2.30;99.90;;;;;;5089784;28;20469;-69
2021/11/10 03:29:02;;;;;;;31.63;27.30;;;2.20;99.90;;;;;;5091591;28;20819;-68
2021/11/10 03:31:30;;;;;;;34.60;26.97;;;2.10;99.90;;;;;;5091311;28;20493;-68
2021/11/10 03:33:57;;;;;;;28.77;26.03;;;2.20;99.90;;;;;;5089830;28;20853;-68
2021/11/10 03:36:24;;;;;;;30.00;26.97;;;2.30;99.90;;;;;;5093362;28;20461;-68
2021/11/10 03:38:51;;;;;;;34.43;27.27;;;2.30;99.90;;;;;;5086813;28;20513;-68
2021/11/10 03:41:17;;;;;;;30.00;27.10;;;2.30;99.90;;;;;;5093395;28;20504;-68
2021/11/10 03:43:45;;;;;;;29.80;25.23;;;2.30;99.90;;;;;;5087919;28;20466;-69
2021/11/10 03:46:13;;;;;;;28.53;26.20;;;2.30;99.90;;;;;;5094552;28;20474;-68
2021/11/10 03:48:41;;;;;;;28.60;25.33;;;2.20;99.90;;;;;;5097361;28;20479;-68
2021/11/10 03:51:08;;;;;;;27.67;25.27;;;2.20;99.90;;;;;;5095136;28;20464;-68
2021/11/10 03:53:35;;;;;;;28.60;26.10;;;2.10;99.90;;;;;;5094469;28;20461;-69
2021/11/10 03:56:01;;;;;;;29.03;26.47;;;2.10;99.90;;;;;;5087783;28;20477;-69
2021/11/10 03:58:28;;;;;;;28.87;25.87;;;2.10;99.90;;;;;;5093492;28;20465;-69
2021/11/10 04:00:55;;;;;;;29.50;26.30;;;2.10;99.90;;;;;;5084868;28;20523;-69
2021/11/10 04:03:25;;;;;;;28.60;26.13;;;2.00;99.90;;;;;;5092126;28;20477;-69
2021/11/10 04:05:52;;;;;;;28.60;25.90;;;1.90;99.90;;;;;;5095988;28;20553;-69
2021/11/10 04:08:19;;;;;;;27.30;25.20;;;1.70;99.90;;;;;;5089862;28;20474;-69
2021/11/10 04:10:47;;;;;;;31.30;28.07;;;1.50;99.90;;;;;;5092584;28;20470;-69
2021/11/10 04:13:13;;;;;;;30.13;27.17;;;1.40;99.90;;;;;;5085352;28;20468;-69
2021/11/10 04:15:40;;;;;;;31.20;28.60;;;1.40;99.90;;;;;;5096036;28;20474;-69
2021/11/10 04:18:07;;;;;;;31.27;28.27;;;1.50;99.90;;;;;;5090886;28;20465;-69
2021/11/10 04:20:35;;;;;;;30.60;27.57;;;1.50;99.90;;;;;;5088273;28;20477;-69
2021/11/10 04:23:03;;;;;;;31.17;28.27;;;1.40;99.90;;;;;;5087054;28;20867;-69
2021/11/10 04:25:29;;;;;;;30.43;27.13;;;1.40;99.90;;;;;;5095180;28;21290;-69
2021/11/10 04:27:56;;;;;;;30.97;28.07;;;1.30;99.90;;;;;;5089549;28;20480;-69
2021/11/10 04:30:23;;;;;;;29.20;26.73;;;1.20;99.90;;;;;;5095345;28;20496;-69
2021/11/10 04:32:50;;;;;;;28.40;25.90;;;1.10;99.90;;;;;;5092772;28;20474;-69
2021/11/10 04:35:18;;;;;;;28.83;26.43;;;1.00;99.90;;;;;;5091915;28;20464;-69
2021/11/10 04:37:46;;;;;;;30.33;27.47;;;1.00;99.90;;;;;;5087510;28;20467;-69
2021/11/10 04:40:13;;;;;;;28.83;26.33;;;0.90;99.90;;;;;;5083709;28;20468;-69
2021/11/10 04:42:42;;;;;;;30.53;27.83;;;0.80;99.90;;;;;;5090699;28;20499;-69
2021/11/10 04:45:14;;;;;;;31.97;28.80;;;0.70;99.90;;;;;;5094278;28;21145;-69
2021/11/10 04:47:41;;;;;;;32.13;29.50;;;0.70;99.90;;;;;;5093956;28;20472;-69
2021/11/10 04:50:10;;;;;;;30.77;28.43;;;0.70;99.90;;;;;;5091832;28;21273;-69
2021/11/10 04:52:39;;;;;;;31.33;28.27;;;0.80;99.90;;;;;;5093712;28;20468;-69
2021/11/10 04:55:10;;;;;;;31.10;28.17;;;0.80;99.90;;;;;;5088903;28;20552;-69
2021/11/10 04:57:37;;;;;;;31.80;28.63;;;0.70;99.90;;;;;;5091779;28;20545;-69
2021/11/10 05:00:05;;;;;;;31.13;28.23;;;0.60;99.90;;;;;;5091806;28;20493;-69
2021/11/10 05:02:32;;;;;;;31.50;28.50;;;0.70;99.90;;;;;;5091953;28;20487;-69
2021/11/10 05:04:59;;;;;;;28.93;26.43;;;0.80;99.90;;;;;;5092615;28;21013;-69
2021/11/10 05:07:26;;;;;;;30.40;27.50;;;0.70;99.90;;;;;;5093578;28;20466;-69
2021/11/10 05:09:54;;;;;;;31.50;28.77;;;0.60;99.90;;;;;;5095161;28;20554;-69
2021/11/10 05:12:23;;;;;;;31.17;28.17;;;0.60;99.90;;;;;;5094310;28;20495;-69
2021/11/10 05:14:52;;;;;;;29.57;26.77;;;0.50;99.90;;;;;;5096873;28;20465;-69
2021/11/10 05:17:20;;;;;;;29.47;26.80;;;0.50;99.90;;;;;;5092441;28;20460;-69
2021/11/10 05:19:47;;;;;;;28.20;25.17;;;0.50;99.90;;;;;;5099376;28;20473;-69
2021/11/10 05:22:15;;;;;;;26.77;24.50;;;0.50;99.90;;;;;;5086840;28;20583;-69
2021/11/10 05:24:42;;;;;;;26.90;24.50;;;0.60;99.90;;;;;;5092959;28;21385;-69
2021/11/10 05:27:09;;;;;;;28.20;25.20;;;0.60;99.90;;;;;;5095853;28;20902;-69
2021/11/10 05:29:38;;;;;;;28.50;25.80;;;0.60;99.90;;;;;;5099668;28;20562;-69
2021/11/10 05:32:06;;;;;;;30.03;26.83;;;0.60;99.90;;;;;;5097780;28;20491;-69
2021/11/10 05:34:33;;;;;;;27.37;24.67;;;0.70;99.90;;;;;;5092701;28;21351;-69
2021/11/10 05:37:01;;;;;;;32.37;28.83;;;0.70;99.90;;;;;;5096290;28;20460;-69
2021/11/10 05:39:28;;;;;;;32.43;29.20;;;0.70;99.90;;;;;;5094176;28;20464;-69
2021/11/10 05:41:54;;;;;;;28.33;25.70;;;0.70;99.90;;;;;;5093895;28;20487;-69
2021/11/10 05:44:22;;;;;;;27.53;25.30;;;0.70;99.90;;;;;;5089499;28;20463;-69
2021/11/10 05:46:50;;;;;;;28.60;25.83;;;0.70;99.90;;;;;;5096226;28;21125;-70
2021/11/10 05:49:17;;;;;;;27.57;25.20;;;0.60;99.90;;;;;;5097647;28;20483;-69
2021/11/10 05:51:45;;;;;;;27.20;24.87;;;0.60;99.90;;;;;;5095670;28;20458;-70
2021/11/10 05:54:13;;;;;;;26.43;24.13;;;0.60;99.90;;;;;;5092838;28;20571;-72
2021/11/10 05:56:42;;;;;;;30.13;27.10;;;0.50;99.90;;;;;;5092047;28;20470;-70
2021/11/10 05:59:09;;;;;;;28.43;26.00;;;0.50;99.90;;;;;;5090428;28;20475;-69
2021/11/10 06:01:37;;;;;;;33.23;26.37;;;0.40;99.90;;;;;;5089907;28;20536;-69
2021/11/10 06:04:09;;;;;;;27.53;25.23;;;0.40;99.90;;;;;;5088845;28;20468;-72
2021/11/10 06:06:35;;;;;;;26.37;24.23;;;0.40;99.90;;;;;;5093144;28;21153;-71
2021/11/10 06:09:03;;;;;;;26.67;24.37;;;0.40;99.90;;;;;;5091778;28;20460;-73
2021/11/10 06:11:30;;;;;;;26.87;24.20;;;0.40;99.90;;;;;;5093556;28;20472;-71
2021/11/10 06:13:57;;;;;;;26.93;24.53;;;0.40;99.90;;;;;;5090058;28;20492;-72
2021/11/10 06:16:24;;;;;;;28.10;25.50;;;0.30;99.90;;;;;;5093268;28;21000;-71
2021/11/10 06:18:51;;;;;;;27.03;24.53;;;0.40;99.90;;;;;;5089047;28;21014;-72
2021/11/10 06:21:19;;;;;;;28.00;25.50;;;0.40;99.90;;;;;;5092850;28;20484;-73
2021/11/10 06:23:46;;;;;;;27.07;24.53;;;0.40;99.90;;;;;;5089973;28;20481;-71
2021/11/10 06:26:13;;;;;;;27.60;25.00;;;0.40;99.90;;;;;;5093169;28;20469;-71
2021/11/10 06:28:41;;;;;;;27.50;24.93;;;0.40;99.90;;;;;;5095461;28;20467;-68
2021/11/10 06:31:08;;;;;;;27.90;25.50;;;0.50;99.90;;;;;;5099840;28;22907;-70
2021/11/10 06:33:35;;;;;;;27.60;25.00;;;0.50;99.90;;;;;;5090684;28;20471;-70
2021/11/10 06:36:03;;;;;;;26.13;23.83;;;0.50;99.90;;;;;;5091951;28;20575;-70
2021/11/10 06:38:32;;;;;;;27.80;25.20;;;0.50;99.90;;;;;;5090512;28;20480;-71
2021/11/10 06:40:59;;;;;;;26.00;23.80;;;0.40;99.90;;;;;;5088570;28;20460;-73
2021/11/10 06:43:26;;;;;;;26.17;23.90;;;0.40;99.90;;;;;;5094056;28;20468;-69
2021/11/10 06:45:54;;;;;;;27.43;25.13;;;0.40;99.90;;;;;;5089970;28;20773;-69
2021/11/10 06:48:21;;;;;;;27.50;24.80;;;0.40;99.90;;;;;;5089236;28;20472;-72
2021/11/10 06:50:48;;;;;;;28.00;25.20;;;0.50;99.90;;;;;;5095874;28;20972;-72
2021/11/10 06:53:15;;;;;;;25.53;23.30;;;0.50;99.90;;;;;;5091624;28;20467;-69
2021/11/10 06:55:44;;;;;;;27.33;24.63;;;0.50;99.90;;;;;;5088190;28;20463;-72
2021/11/10 06:58:11;;;;;;;26.10;23.43;;;0.50;99.90;;;;;;5090862;28;20456;-70
2021/11/10 07:00:38;;;;;;;35.40;23.67;;;0.50;99.90;;;;;;5086941;28;20470;-69
2021/11/10 07:03:06;;;;;;;29.47;23.77;;;0.50;99.90;;;;;;5085112;28;20531;-70
2021/11/10 07:05:34;;;;;;;25.87;23.27;;;0.60;99.90;;;;;;5090328;28;20464;-69
2021/11/10 07:08:01;;;;;;;56.03;25.77;;;0.60;99.90;;;;;;5084659;28;20458;-72
2021/11/10 07:10:28;;;;;;;36.30;25.50;;;0.70;99.90;;;;;;5092294;28;20467;-72
2021/11/10 07:12:57;;;;;;;29.90;25.83;;;0.80;99.90;;;;;;5089069;28;20909;-72
2021/11/10 07:15:25;;;;;;;32.07;24.80;;;0.80;99.90;;;;;;5093733;28;20469;-71
2021/11/10 07:17:52;;;;;;;35.27;24.80;;;0.90;99.90;;;;;;5093609;28;20475;-72
2021/11/10 07:20:19;;;;;;;27.50;24.77;;;0.90;99.90;;;;;;5087367;28;20465;-70
2021/11/10 07:22:47;;;;;;;28.57;25.03;;;0.90;99.90;;;;;;5088215;28;20491;-72
2021/11/10 07:25:15;;;;;;;31.47;25.67;;;0.90;99.90;;;;;;5084142;28;20484;-72
2021/11/10 07:27:43;;;;;;;38.13;25.20;;;0.80;99.90;;;;;;5088012;28;20475;-69
2021/11/10 07:30:13;;;;;;;37.93;25.40;;;0.80;99.90;;;;;;5091824;28;21100;-70
2021/11/10 07:32:40;;;;;;;32.20;26.33;;;0.80;99.90;;;;;;5089029;28;21030;-71
2021/11/10 07:35:10;;;;;;;37.43;26.03;;;0.90;99.90;;;;;;5084174;28;20463;-70
2021/11/10 07:37:37;;;;;;;29.57;25.17;;;0.90;99.90;;;;;;5092337;28;20472;-72
2021/11/10 07:40:05;;;;;;;37.33;24.90;;;0.90;99.90;;;;;;5096122;28;20556;-70
2021/11/10 07:42:33;;;;;;;46.73;27.83;;;0.90;99.90;;;;;;5086516;28;20934;-70
2021/11/10 07:45:06;;;;;;;50.83;27.40;;;1.00;99.90;;;;;;5089708;28;20990;-70
2021/11/10 07:47:40;;;;;;;75.93;29.57;;;1.00;99.90;;;;;;5095856;28;20961;-72
2021/11/10 07:50:10;;;;;;;49.93;29.50;;;1.10;99.90;;;;;;5091357;28;20502;-73
2021/11/10 07:52:37;;;;;;;43.50;29.40;;;1.30;99.90;;;;;;5090207;28;20467;-69
2021/11/10 07:55:06;;;;;;;47.03;29.97;;;1.40;99.90;;;;;;5090541;28;20914;-70
2021/11/10 07:57:35;;;;;;;44.53;29.73;;;1.50;99.90;;;;;;5089743;28;20457;-72
2021/11/10 08:00:04;;;;;;;51.43;28.73;;;1.60;99.90;;;;;;5092085;28;20460;-69
2021/11/10 08:02:34;;;;;;;46.70;29.77;;;1.60;99.90;;;;;;5093425;28;20480;-70
2021/11/10 08:05:01;;;;;;;39.43;30.17;;;1.70;99.90;;;;;;5091577;28;20960;-70
2021/11/10 08:07:28;;;;;;;53.37;29.37;;;1.80;99.90;;;;;;5094370;28;20896;-70
2021/11/10 08:09:55;;;;;;;37.67;28.37;;;1.90;99.90;;;;;;5089420;28;20514;-70
2021/11/10 08:12:22;;;;;;;51.30;30.00;;;2.00;99.90;;;;;;5088468;28;20465;-70
2021/11/10 08:14:49;;;;;;;45.37;27.90;;;2.00;99.90;;;;;;5091978;28;20465;-70
2021/11/10 08:17:16;;;;;;;49.70;28.30;;;2.00;99.90;;;;;;5090221;28;20554;-70
2021/11/10 08:19:44;;;;;;;49.40;30.00;;;2.00;99.90;;;;;;5095468;28;20477;-72
2021/11/10 08:22:12;;;;;;;34.80;30.17;;;2.10;99.90;;;;;;5092716;28;20523;-69
2021/11/10 08:24:39;;;;;;;36.97;28.30;;;2.30;99.90;;;;;;5091702;28;20521;-71
2021/11/10 08:27:07;;;;;;;39.50;29.83;;;2.30;99.90;;;;;;5086541;28;20489;-70
2021/11/10 08:29:34;;;;;;;44.43;32.50;;;2.40;99.90;;;;;;5092052;28;20461;-71
2021/11/10 08:32:01;;;;;;;42.40;30.03;;;2.50;99.90;;;;;;5091839;28;20497;-71
2021/11/10 08:34:28;;;;;;;39.97;30.30;;;2.60;99.90;;;;;;5097834;28;20467;-70
2021/11/10 08:36:56;;;;;;;35.20;28.50;;;2.70;99.90;;;;;;5104027;28;20712;-68
2021/11/10 08:39:23;;;;;;;41.93;28.03;;;2.80;99.90;;;;;;5089827;28;20469;-70
2021/11/10 08:41:50;;;;;;;49.47;28.90;;;2.90;99.90;;;;;;5091495;28;20453;-71
2021/11/10 08:44:17;;;;;;;38.73;27.60;;;2.90;99.90;;;;;;5098330;28;20479;-69
2021/11/10 08:46:45;;;;;;;46.00;28.57;;;3.10;99.90;;;;;;5092965;28;20908;-70
2021/11/10 08:49:13;;;;;;;34.27;30.03;;;3.20;99.90;;;;;;5096495;28;20468;-71
2021/11/10 08:51:40;;;;;;;39.27;28.70;;;3.30;99.90;;;;;;5092137;28;20458;-71
2021/11/10 08:54:09;;;;;;;42.67;28.73;;;3.50;99.90;;;;;;5088000;28;20549;-70
2021/11/10 08:56:36;;;;;;;32.40;27.90;;;3.60;99.90;;;;;;5093714;28;20975;-70
2021/11/10 08:59:03;;;;;;;39.10;28.13;;;3.70;99.90;;;;;;5095100;28;20453;-70
2021/11/10 09:01:30;;;;;;;49.73;29.83;;;3.90;99.90;;;;;;5085891;28;20492;-72
2021/11/10 09:03:57;;;;;;;30.83;27.20;;;4.10;99.90;;;;;;5088301;28;20862;-72
2021/11/10 09:06:24;;;;;;;34.93;28.70;;;4.20;99.90;;;;;;5095819;28;20461;-69
2021/11/10 09:08:51;;;;;;;32.50;28.63;;;4.20;99.90;;;;;;5101676;28;20514;-71
2021/11/10 09:11:20;;;;;;;33.17;25.90;;;4.40;99.90;;;;;;5090898;28;20979;-70
2021/11/10 09:13:47;;;;;;;43.80;28.90;;;4.70;99.90;;;;;;5094962;28;20463;-69
2021/11/10 09:16:14;;;;;;;31.70;28.27;;;4.80;99.90;;;;;;5095271;28;20464;-69
2021/11/10 09:18:41;;;;;;;39.70;28.77;;;4.90;99.90;;;;;;5089676;28;20469;-72
2021/11/10 09:21:09;;;;;;;40.63;30.50;;;5.10;99.90;;;;;;5094531;28;20465;-71
2021/11/10 09:23:37;;;;;;;40.03;28.80;;;5.30;99.90;;;;;;5095970;28;20805;-72
2021/11/10 09:26:04;;;;;;;31.70;28.60;;;5.40;99.90;;;;;;5098296;28;20462;-71
2021/11/10 09:28:33;;;;;;;30.70;27.30;;;5.50;99.90;;;;;;5102548;28;20523;-72
2021/11/10 09:31:00;;;;;;;33.63;28.10;;;5.50;99.90;;;;;;5106757;28;20482;-69
2021/11/10 09:33:27;;;;;;;32.70;27.13;;;5.70;99.90;;;;;;5091807;28;21026;-72
2021/11/10 09:35:55;;;;;;;41.83;27.63;;;5.90;99.90;;;;;;5097122;28;20553;-73
2021/11/10 09:38:23;;;;;;;35.77;27.00;;;6.00;99.90;;;;;;5095778;28;20922;-70
2021/11/10 09:40:50;;;;;;;29.53;26.83;;;6.20;99.90;;;;;;5100767;28;20944;-71
2021/11/10 09:43:18;;;;;;;36.43;27.13;;;6.20;99.90;;;;;;5095029;28;20495;-73
2021/11/10 09:45:48;;;;;;;34.73;26.10;;;6.50;99.90;;;;;;5092548;28;20465;-72
2021/11/10 09:48:16;;;;;;;29.07;25.57;;;6.70;99.90;;;;;;5095838;28;20468;-71
2021/11/10 09:50:45;;;;;;;34.17;25.70;;;6.80;99.90;;;;;;5097987;28;20975;-71
2021/11/10 09:53:13;;;;;;;31.13;25.37;;;6.80;99.90;;;;;;5097114;28;20466;-72
2021/11/10 09:55:40;;;;;;;28.77;25.97;;;6.90;99.90;;;;;;5094957;28;20473;-71
2021/11/10 09:58:08;;;;;;;28.87;25.97;;;7.00;99.90;;;;;;5100235;28;20984;-71
2021/11/10 10:00:38;;;;;;;28.93;25.83;;;7.10;99.90;;;;;;5093845;28;21025;-69
2021/11/10 10:03:08;;;;;;;35.00;24.97;;;7.30;99.90;;;;;;5094512;28;20493;-70
2021/11/10 10:05:36;;;;;;;35.07;25.60;;;7.60;99.90;;;;;;5099575;28;20480;-70
2021/11/10 10:08:05;;;;;;;31.87;24.40;;;7.90;99.90;;;;;;5097558;28;20462;-69
2021/11/10 10:10:34;;;;;;;33.00;25.00;;;8.00;99.90;;;;;;5085868;28;20484;-69
2021/11/10 10:13:03;;;;;;;26.97;24.10;;;8.10;99.90;;;;;;5094845;28;20483;-70
2021/11/10 10:15:32;;;;;;;27.60;23.93;;;8.40;99.90;;;;;;5096504;28;20469;-69
2021/11/10 10:17:59;;;;;;;26.00;23.30;;;8.40;99.90;;;;;;5092860;28;20464;-71
2021/11/10 10:20:33;;;;;;;26.83;23.87;;;8.40;99.90;;;;;;5087610;28;20541;-69
2021/11/10 10:23:02;;;;;;;29.20;23.37;;;8.60;99.90;;;;;;5091389;28;21019;-67
2021/11/10 10:25:44;;;;;;;27.63;23.37;;;8.90;99.90;;;;;;5091388;28;20482;-67
2021/11/10 10:28:13;;;;;;;25.43;23.03;;;9.10;99.90;;;;;;5090086;28;21095;-71
2021/11/10 10:30:45;;;;;;;28.70;23.17;;;9.40;99.90;;;;;;5095554;28;20490;-68
2021/11/10 10:33:14;;;;;;;25.87;23.37;;;9.70;99.90;;;;;;5092031;28;20460;-69
2021/11/10 10:35:46;;;;;;;24.50;22.50;;;10.10;99.90;;;;;;5092308;28;20581;-68
2021/11/10 10:38:15;;;;;;;25.97;23.37;;;11.00;99.90;;;;;;5092819;28;20453;-68
2021/11/10 10:40:45;;;;;;;25.30;23.20;;;11.60;99.90;;;;;;5094475;28;20465;-68
2021/11/10 10:43:12;;;;;;;20.80;19.40;;;12.00;99.90;;;;;;5090288;28;20968;-68
2021/11/10 10:45:41;;;;;;;22.20;20.40;;;12.90;99.90;;;;;;5100889;28;20511;-68
2021/11/10 10:48:12;;;;;;;21.63;19.83;;;13.40;99.90;;;;;;5092059;28;20469;-72
2021/11/10 10:50:46;;;;;;;21.73;19.53;;;13.60;99.90;;;;;;5093327;28;20570;-68
2021/11/10 10:53:14;;;;;;;21.90;20.13;;;13.70;99.90;;;;;;5086841;28;20457;-71
2021/11/10 10:55:45;;;;;;;20.53;18.87;;;13.60;99.90;;;;;;5090085;28;20544;-69
2021/11/10 10:58:13;;;;;;;20.90;19.17;;;13.30;99.90;;;;;;5085682;28;20462;-70
2021/11/10 11:00:42;;;;;;;21.07;19.37;;;12.60;99.90;;;;;;5091075;28;20866;-69
2021/11/10 11:03:25;;;;;;;21.93;20.00;;;12.10;99.90;;;;;;5090873;28;20481;-72
2021/11/10 11:05:54;;;;;;;22.60;20.77;;;12.10;99.90;;;;;;5092612;28;20454;-70
2021/11/10 11:08:38;;;;;;;21.00;19.30;;;12.30;99.90;;;;;;5093387;28;20469;-69
2021/11/10 11:11:34;;;;;;;21.40;19.43;;;12.30;99.90;;;;;;5093156;28;20593;-72
2021/11/10 11:14:01;;;;;;;22.43;20.73;;;12.30;99.90;;;;;;5095888;28;20828;-69
2021/11/10 11:16:36;;;;;;;21.63;20.03;;;12.20;99.90;;;;;;5091124;28;20469;-73
2021/11/10 11:19:21;;;;;;;20.77;19.00;;;12.20;99.90;;;;;;5086698;28;21289;-68
2021/11/10 11:21:56;;;;;;;21.07;19.23;;;12.10;99.90;;;;;;5085753;28;20469;-70
2021/11/10 11:24:31;;;;;;;21.93;20.17;;;12.20;99.90;;;;;;5090287;28;21190;-69
2021/11/10 11:27:13;;;;;;;22.20;20.20;;;11.80;99.90;;;;;;5093144;28;20460;-69
2021/11/10 11:29:42;;;;;;;21.50;19.63;;;11.90;99.90;;;;;;5095676;28;20464;-69
2021/11/10 11:32:22;;;;;;;21.23;19.73;;;12.00;99.90;;;;;;5091340;28;21095;-71
2021/11/10 11:34:52;;;;;;;21.07;19.40;;;12.50;99.90;;;;;;5092769;28;20490;-69
2021/11/10 11:37:21;;;;;;;21.30;19.50;;;12.90;99.90;;;;;;5093852;28;20460;-69
2021/11/10 11:39:50;;;;;;;20.30;18.80;;;13.30;99.90;;;;;;5086078;28;20462;-69
2021/11/10 11:42:18;;;;;;;21.17;19.13;;;13.70;99.90;;;;;;5097596;28;20469;-70
2021/11/10 11:44:45;;;;;;;22.33;20.43;;;13.30;99.90;;;;;;5097196;28;20495;-69
2021/11/10 11:47:12;;;;;;;20.83;19.10;;;12.60;99.90;;;;;;5094302;28;20451;-73
2021/11/10 11:49:41;;;;;;;22.40;20.60;;;12.90;99.90;;;;;;5089974;28;20552;-69
2021/11/10 11:52:10;;;;;;;21.60;20.00;;;13.40;99.90;;;;;;5097050;28;20472;-71
2021/11/10 11:54:42;;;;;;;22.43;20.53;;;13.80;99.90;;;;;;5095190;28;21098;-70
2021/11/10 11:57:11;;;;;;;22.20;20.43;;;13.80;99.90;;;;;;5090655;28;20590;-71
2021/11/10 11:59:40;;;;;;;22.13;19.93;;;13.60;99.90;;;;;;5090645;28;20469;-70
2021/11/10 12:02:24;;;;;;;22.33;20.43;;;14.00;99.90;;;;;;5089007;28;21069;-73
2021/11/10 12:04:52;;;;;;;24.97;21.50;;;14.50;99.90;;;;;;5087867;28;21026;-70
2021/11/10 12:07:41;;;;;;;27.80;21.57;;;14.60;99.90;;;;;;5089787;28;20548;-70
2021/11/10 12:10:33;;;;;;;24.23;22.00;;;14.30;99.90;;;;;;5083724;28;20457;-69
2021/11/10 12:13:13;;;;;;;24.40;20.87;;;13.50;99.90;;;;;;5092039;28;20549;-69
2021/11/10 12:15:59;;;;;;;24.87;21.47;;;13.10;99.90;;;;;;5090195;28;20456;-75
2021/11/10 12:18:28;;;;;;;22.97;20.87;;;12.90;99.90;;;;;;5084464;28;20466;-71
2021/11/10 12:20:59;;;;;;;23.93;21.63;;;12.50;99.90;;;;;;5089180;28;20472;-69
2021/11/10 12:24:05;;;;;;;23.93;21.63;;;12.50;99.90;;;;;;5088131;28;20958;-71
2021/11/10 12:26:35;;;;;;;22.47;20.70;;;12.30;99.90;;;;;;5081008;28;20543;-72
2021/11/10 12:29:04;;;;;;;23.60;21.53;;;12.10;99.90;;;;;;5090457;28;20998;-70
2021/11/10 12:31:32;;;;;;;23.63;21.40;;;12.30;99.90;;;;;;5091272;28;21315;-70
2021/11/10 12:34:00;;;;;;;24.30;20.77;;;12.40;99.90;;;;;;5087314;28;20560;-72
2021/11/10 12:36:50;;;;;;;24.60;22.40;;;12.40;99.90;;;;;;5081679;28;20465;-70
2021/11/10 12:39:28;;;;;;;23.33;21.20;;;12.50;99.90;;;;;;5093571;28;20454;-72
2021/11/10 12:42:02;;;;;;;23.43;21.20;;;12.50;99.90;;;;;;5088914;28;20494;-70
2021/11/10 12:44:30;;;;;;;23.10;21.20;;;12.50;99.90;;;;;;5084401;28;20495;-73